Time;durP1;ratioP1;P1;durP2;ratioP2;P2;SDS_P1;SDS_P2;PMS_P1;PMS_P2;Temp;Humidity;BMP_temperature;BMP_pressure;BME280_temperature;BME280_humidity;BME280_pressure;Samples;Min_cycle;Max_cycle;Signal;HPM_P1;HPM_P2
2023/10/25 00:01:47;;;;;;;23.83;13.50;;;13.30;99.90;;;;;;4228832;28;20365;-61
2023/10/25 00:03:48;;;;;;;23.70;14.55;;;13.30;99.90;;;;;;4228599;28;20044;-61
2023/10/25 00:05:49;;;;;;;26.37;14.37;;;13.30;99.90;;;;;;4229378;28;20097;-61
2023/10/25 00:07:50;;;;;;;28.88;14.70;;;13.30;99.90;;;;;;4229126;28;20097;-61
2023/10/25 00:09:52;;;;;;;30.35;14.55;;;13.30;99.90;;;;;;4229078;28;20101;-61
2023/10/25 00:11:54;;;;;;;30.97;14.23;;;13.30;99.90;;;;;;4229499;28;20043;-60
2023/10/25 00:13:55;;;;;;;35.58;20.50;;;13.40;99.90;;;;;;4228150;28;20036;-61
2023/10/25 00:15:56;;;;;;;30.87;15.53;;;13.40;99.90;;;;;;4229633;28;20051;-61
2023/10/25 00:17:57;;;;;;;28.85;14.60;;;13.40;99.90;;;;;;4228272;28;20180;-61
2023/10/25 00:19:58;;;;;;;20.35;11.57;;;13.60;99.90;;;;;;4229565;28;20441;-61
2023/10/25 00:21:59;;;;;;;23.93;10.93;;;13.70;99.90;;;;;;4228432;28;20055;-61
2023/10/25 00:24:00;;;;;;;15.02;9.65;;;13.80;99.90;;;;;;4229580;28;20043;-60
2023/10/25 00:26:01;;;;;;;22.08;11.20;;;13.80;99.90;;;;;;4228266;27;20051;-60
2023/10/25 00:28:03;;;;;;;24.17;10.43;;;13.90;99.90;;;;;;4229422;28;20048;-61
2023/10/25 00:30:05;;;;;;;19.10;8.93;;;13.90;99.90;;;;;;4227874;28;20417;-60
2023/10/25 00:32:06;;;;;;;16.33;8.32;;;14.00;99.90;;;;;;4228100;28;20077;-61
2023/10/25 00:34:07;;;;;;;16.40;8.07;;;14.00;99.90;;;;;;4228719;27;20043;-61
2023/10/25 00:36:08;;;;;;;13.93;7.43;;;14.10;99.90;;;;;;4228414;28;20088;-61
2023/10/25 00:38:10;;;;;;;19.67;9.15;;;14.20;99.90;;;;;;4228871;27;20027;-61
2023/10/25 00:40:11;;;;;;;19.30;8.73;;;14.20;99.90;;;;;;4228375;28;20039;-61
2023/10/25 00:42:12;;;;;;;17.20;10.27;;;14.20;99.90;;;;;;4229439;27;20040;-61
2023/10/25 00:44:13;;;;;;;18.65;9.27;;;14.20;99.90;;;;;;4228596;27;20036;-61
2023/10/25 00:46:32;;;;;;;14.18;8.40;;;14.10;99.90;;;;;;4229029;28;20434;-60
2023/10/25 00:48:35;;;;;;;17.42;9.13;;;14.00;99.90;;;;;;4227696;28;20027;-61
2023/10/25 00:50:36;;;;;;;22.80;10.73;;;14.00;99.90;;;;;;4229185;28;20073;-61
2023/10/25 00:52:38;;;;;;;16.38;9.20;;;14.00;99.90;;;;;;4227786;28;20109;-61
2023/10/25 00:54:39;;;;;;;15.80;7.18;;;14.10;99.90;;;;;;4228808;28;20421;-60
2023/10/25 00:56:41;;;;;;;16.00;7.97;;;14.10;99.90;;;;;;4228130;27;20588;-61
2023/10/25 00:58:48;;;;;;;13.55;6.65;;;14.30;99.90;;;;;;4228914;28;20031;-61
2023/10/25 01:00:52;;;;;;;13.40;6.85;;;14.40;99.90;;;;;;4227611;28;20023;-62
2023/10/25 01:02:53;;;;;;;15.35;6.80;;;14.40;99.90;;;;;;4228055;28;20047;-61
2023/10/25 01:04:55;;;;;;;12.52;5.88;;;14.50;99.90;;;;;;4228176;28;20047;-62
2023/10/25 01:06:56;;;;;;;16.05;6.72;;;14.50;99.90;;;;;;4229010;27;20043;-62
2023/10/25 01:08:57;;;;;;;11.85;5.97;;;14.50;99.90;;;;;;4226982;27;20548;-62
2023/10/25 01:10:58;;;;;;;12.15;6.25;;;14.60;99.90;;;;;;4228192;28;20093;-61
2023/10/25 01:12:59;;;;;;;11.43;5.32;;;14.60;99.90;;;;;;4227911;27;20100;-61
2023/10/25 01:15:00;;;;;;;10.95;5.78;;;14.70;99.90;;;;;;4227141;28;20082;-62
2023/10/25 01:17:02;;;;;;;12.05;5.40;;;14.70;99.90;;;;;;4228226;28;20548;-60
2023/10/25 01:19:03;;;;;;;10.98;4.65;;;14.60;99.90;;;;;;4226213;28;20386;-61
2023/10/25 01:21:05;;;;;;;9.77;5.00;;;14.70;99.90;;;;;;4228488;27;20039;-62
2023/10/25 01:23:06;;;;;;;8.30;4.65;;;14.70;99.90;;;;;;4219395;28;20044;-62
2023/10/25 01:25:07;;;;;;;10.23;5.32;;;14.70;99.90;;;;;;4223465;28;20458;-60
2023/10/25 01:27:08;;;;;;;12.40;4.70;;;14.70;99.90;;;;;;4210371;28;20097;-61
2023/10/25 01:29:10;;;;;;;11.10;4.85;;;14.80;99.90;;;;;;4219435;28;20047;-62
2023/10/25 01:31:11;;;;;;;7.82;4.03;;;14.80;99.90;;;;;;4227230;28;20035;-62
2023/10/25 01:33:12;;;;;;;9.30;4.20;;;14.80;99.90;;;;;;4227975;28;20023;-63
2023/10/25 01:35:14;;;;;;;12.57;4.97;;;14.90;99.90;;;;;;4226985;28;20081;-60
2023/10/25 01:37:17;;;;;;;24.13;6.65;;;15.00;99.90;;;;;;4228092;28;20402;-63
2023/10/25 01:39:18;;;;;;;13.35;4.18;;;15.00;99.90;;;;;;4226102;27;20036;-62
2023/10/25 01:41:19;;;;;;;13.98;5.28;;;15.00;99.90;;;;;;4227929;28;20043;-62
2023/10/25 01:43:21;;;;;;;15.68;6.70;;;14.90;99.90;;;;;;4226713;28;20032;-62
2023/10/25 01:45:27;;;;;;;15.07;6.65;;;15.00;99.90;;;;;;4227694;28;20043;-62
2023/10/25 01:47:28;;;;;;;12.63;6.65;;;14.80;99.90;;;;;;4227901;28;20084;-61
2023/10/25 01:49:29;;;;;;;17.05;6.72;;;14.80;99.90;;;;;;4225377;28;20032;-62
2023/10/25 01:51:30;;;;;;;9.32;4.40;;;14.80;99.90;;;;;;4227427;28;20493;-60
2023/10/25 01:53:33;;;;;;;17.67;6.53;;;14.80;99.90;;;;;;4226589;28;20175;-62
2023/10/25 01:55:38;;;;;;;10.00;5.10;;;14.80;99.90;;;;;;4227593;28;20153;-61
2023/10/25 01:57:40;;;;;;;7.50;3.33;;;14.80;99.90;;;;;;4226112;28;20039;-62
2023/10/25 01:59:41;;;;;;;9.90;3.50;;;14.80;99.90;;;;;;4227805;28;20642;-61
2023/10/25 02:01:42;;;;;;;10.68;3.35;;;14.90;99.90;;;;;;4226239;28;20092;-61
2023/10/25 02:03:43;;;;;;;7.88;3.90;;;15.00;99.90;;;;;;4227857;27;20153;-62
2023/10/25 02:05:44;;;;;;;11.75;3.28;;;15.00;99.90;;;;;;4227378;28;20148;-62
2023/10/25 02:07:45;;;;;;;8.23;3.15;;;15.00;99.90;;;;;;4227804;28;20028;-60
2023/10/25 02:09:46;;;;;;;9.82;3.20;;;15.00;99.90;;;;;;4226574;28;20039;-61
2023/10/25 02:11:48;;;;;;;6.47;3.33;;;15.00;99.90;;;;;;4227538;28;20089;-62
2023/10/25 02:13:49;;;;;;;9.80;3.58;;;15.00;99.90;;;;;;4226958;28;20457;-62
2023/10/25 02:15:50;;;;;;;7.50;3.72;;;14.90;99.90;;;;;;4226983;28;20043;-62
2023/10/25 02:17:51;;;;;;;8.07;3.65;;;14.80;99.90;;;;;;4226935;28;20023;-61
2023/10/25 02:19:52;;;;;;;10.90;3.45;;;14.80;99.90;;;;;;4226890;28;20040;-61
2023/10/25 02:21:53;;;;;;;9.82;4.30;;;14.80;99.90;;;;;;4227317;28;20043;-61
2023/10/25 02:23:54;;;;;;;11.63;3.70;;;14.80;99.90;;;;;;4226426;28;20098;-62
2023/10/25 02:25:55;;;;;;;10.25;3.83;;;14.90;99.90;;;;;;4210760;28;20089;-62
2023/10/25 02:27:56;;;;;;;14.38;3.67;;;14.90;99.90;;;;;;4226559;28;20051;-62
2023/10/25 02:29:57;;;;;;;7.15;3.50;;;14.90;99.90;;;;;;4227973;28;20043;-61
2023/10/25 02:31:59;;;;;;;9.48;3.85;;;14.80;99.90;;;;;;4226060;28;20085;-62
2023/10/25 02:34:01;;;;;;;8.77;3.97;;;14.80;99.90;;;;;;4227166;28;20073;-62
2023/10/25 02:36:02;;;;;;;14.32;4.45;;;14.80;99.90;;;;;;4226503;28;20048;-61
2023/10/25 02:38:03;;;;;;;8.65;4.15;;;14.70;99.90;;;;;;4227619;28;20492;-61
2023/10/25 02:40:05;;;;;;;7.70;3.85;;;14.70;99.90;;;;;;4226788;28;20032;-62
2023/10/25 02:42:06;;;;;;;7.45;3.88;;;14.60;99.90;;;;;;4227596;28;20035;-58
2023/10/25 02:44:07;;;;;;;9.32;3.75;;;14.60;99.90;;;;;;4226075;28;20040;-60
2023/10/25 02:46:09;;;;;;;11.80;3.45;;;14.60;99.90;;;;;;4226527;28;20028;-62
2023/10/25 02:48:16;;;;;;;13.82;4.18;;;14.70;99.90;;;;;;4226770;28;20023;-60
2023/10/25 02:50:17;;;;;;;9.18;4.30;;;14.70;99.90;;;;;;4226587;28;20055;-62
2023/10/25 02:52:18;;;;;;;11.93;4.22;;;14.70;99.90;;;;;;4227019;28;20035;-61
2023/10/25 02:54:19;;;;;;;9.40;3.90;;;14.70;99.90;;;;;;4227570;28;20027;-61
2023/10/25 02:56:20;;;;;;;11.68;4.53;;;14.70;99.90;;;;;;4230698;28;20039;-61
2023/10/25 02:58:21;;;;;;;12.88;4.95;;;14.70;99.90;;;;;;4229948;28;20479;-61
2023/10/25 03:00:23;;;;;;;9.88;4.88;;;14.60;99.90;;;;;;4230544;28;20043;-60
2023/10/25 03:02:24;;;;;;;9.57;4.20;;;14.70;99.90;;;;;;4229791;27;20051;-61
2023/10/25 03:04:26;;;;;;;10.48;4.00;;;14.70;99.90;;;;;;4230967;27;20093;-61
2023/10/25 03:06:27;;;;;;;9.52;4.68;;;14.60;99.90;;;;;;4229923;27;20035;-61
2023/10/25 03:08:28;;;;;;;9.48;3.78;;;14.60;99.90;;;;;;4230161;28;20556;-61
2023/10/25 03:10:29;;;;;;;12.25;5.10;;;14.60;99.90;;;;;;4228622;28;20039;-60
2023/10/25 03:12:32;;;;;;;19.48;5.55;;;14.60;99.90;;;;;;4230512;28;20039;-59
2023/10/25 03:14:33;;;;;;;12.32;4.70;;;14.50;99.90;;;;;;4228863;28;20474;-61
2023/10/25 03:16:34;;;;;;;11.43;4.13;;;14.50;99.90;;;;;;4229354;28;20088;-60
2023/10/25 03:18:35;;;;;;;11.50;4.80;;;14.50;99.90;;;;;;4229634;27;20769;-60
2023/10/25 03:20:37;;;;;;;9.93;4.60;;;14.50;99.90;;;;;;4229820;27;20089;-59
2023/10/25 03:22:38;;;;;;;16.80;5.10;;;14.60;99.90;;;;;;4229928;27;20051;-59
2023/10/25 03:24:39;;;;;;;16.30;5.00;;;14.60;99.90;;;;;;4228960;27;20541;-60
2023/10/25 03:26:41;;;;;;;12.75;4.60;;;14.60;99.90;;;;;;4229614;28;20092;-59
2023/10/25 03:28:42;;;;;;;10.10;4.50;;;14.60;99.90;;;;;;4228788;28;20180;-60
2023/10/25 03:30:44;;;;;;;13.02;4.38;;;14.60;99.90;;;;;;4229866;28;20027;-60
2023/10/25 03:32:45;;;;;;;14.73;6.15;;;14.60;99.90;;;;;;4229110;28;20044;-60
2023/10/25 03:34:47;;;;;;;10.48;4.60;;;14.70;99.90;;;;;;4229550;28;20552;-60
2023/10/25 03:36:48;;;;;;;10.52;3.75;;;14.70;99.90;;;;;;4229244;27;20035;-60
2023/10/25 03:38:49;;;;;;;10.63;3.28;;;14.70;99.90;;;;;;4229907;28;20385;-61
2023/10/25 03:41:03;;;;;;;23.92;12.70;;;14.70;99.90;;;;;;4229032;27;20032;-60
2023/10/25 03:43:04;;;;;;;17.45;7.97;;;14.80;99.90;;;;;;4230148;28;20059;-60
2023/10/25 03:45:06;;;;;;;14.77;5.38;;;14.80;99.90;;;;;;4228924;28;20035;-59
2023/10/25 03:47:07;;;;;;;10.70;3.50;;;14.90;99.90;;;;;;4230026;27;20541;-60
2023/10/25 03:49:09;;;;;;;13.00;3.88;;;15.00;99.90;;;;;;4227720;28;20032;-60
2023/10/25 03:51:10;;;;;;;12.48;3.33;;;15.10;99.90;;;;;;4228975;28;20072;-60
2023/10/25 03:53:11;;;;;;;14.02;2.80;;;15.20;99.90;;;;;;4228907;28;20038;-61
2023/10/25 03:55:12;;;;;;;12.48;3.50;;;15.30;99.90;;;;;;4229185;28;20027;-61
2023/10/25 03:57:13;;;;;;;11.88;3.80;;;15.30;99.90;;;;;;4228231;28;20104;-60
2023/10/25 03:59:15;;;;;;;13.02;4.68;;;15.40;99.90;;;;;;4229307;28;20088;-61
2023/10/25 04:01:16;;;;;;;17.88;4.68;;;15.40;99.90;;;;;;4229373;27;20081;-60
2023/10/25 04:03:17;;;;;;;14.98;5.00;;;15.40;99.90;;;;;;4228082;28;20031;-61
2023/10/25 04:05:18;;;;;;;15.15;5.68;;;15.40;99.90;;;;;;4229403;28;20028;-60
2023/10/25 04:07:19;;;;;;;17.02;5.47;;;15.30;99.90;;;;;;4227867;28;20917;-62
2023/10/25 04:09:21;;;;;;;8.68;4.57;;;15.30;99.90;;;;;;4229662;27;20073;-62
2023/10/25 04:11:22;;;;;;;13.43;5.50;;;15.20;99.90;;;;;;4226895;28;20039;-60
2023/10/25 04:13:24;;;;;;;15.65;5.03;;;15.20;99.90;;;;;;4229237;27;20040;-60
2023/10/25 04:15:25;;;;;;;13.73;5.60;;;15.10;99.90;;;;;;4228127;28;20061;-59
2023/10/25 04:17:26;;;;;;;15.07;6.68;;;15.10;99.90;;;;;;4228821;28;20049;-60
2023/10/25 04:19:27;;;;;;;13.50;6.75;;;15.10;99.90;;;;;;4228176;28;20019;-58
2023/10/25 04:21:28;;;;;;;15.05;5.30;;;15.00;99.90;;;;;;4224431;28;20031;-60
2023/10/25 04:23:30;;;;;;;12.75;5.32;;;15.00;99.90;;;;;;4228582;28;20085;-59
2023/10/25 04:25:31;;;;;;;12.63;5.35;;;15.00;99.90;;;;;;4228130;27;20100;-60
2023/10/25 04:27:33;;;;;;;10.45;4.90;;;15.00;99.90;;;;;;4227627;28;20113;-61
2023/10/25 04:29:34;;;;;;;15.32;5.10;;;15.00;99.90;;;;;;4228374;28;20027;-59
2023/10/25 04:31:35;;;;;;;13.63;4.20;;;15.10;99.90;;;;;;4228472;27;20096;-60
2023/10/25 04:33:37;;;;;;;13.05;4.32;;;15.10;99.90;;;;;;4228107;28;20084;-60
2023/10/25 04:35:38;;;;;;;13.55;4.50;;;15.10;99.90;;;;;;4229907;28;20104;-61
2023/10/25 04:37:39;;;;;;;13.05;4.47;;;15.10;99.90;;;;;;4227762;28;20035;-61
2023/10/25 04:39:40;;;;;;;20.42;7.00;;;15.00;99.90;;;;;;4229277;28;20035;-60
2023/10/25 04:41:42;;;;;;;14.07;5.18;;;15.10;99.90;;;;;;4226809;27;20051;-62
2023/10/25 04:43:44;;;;;;;21.02;5.20;;;15.10;99.90;;;;;;4227858;28;20520;-60
2023/10/25 04:45:45;;;;;;;12.63;4.80;;;15.00;99.90;;;;;;4227794;28;20080;-59
2023/10/25 04:47:50;;;;;;;15.75;4.70;;;15.00;99.90;;;;;;4228811;28;20081;-61
2023/10/25 04:49:51;;;;;;;19.63;5.88;;;14.90;99.90;;;;;;4227985;28;20124;-61
2023/10/25 04:51:52;;;;;;;13.27;4.63;;;14.90;99.90;;;;;;4228911;27;20120;-60
2023/10/25 04:53:53;;;;;;;15.02;6.25;;;14.80;99.90;;;;;;4227707;28;20032;-62
2023/10/25 04:55:54;;;;;;;16.73;5.75;;;14.80;99.90;;;;;;4228318;28;20084;-62
2023/10/25 04:57:56;;;;;;;22.25;8.88;;;14.70;99.90;;;;;;4228450;27;20407;-61
2023/10/25 04:59:58;;;;;;;24.00;8.32;;;14.70;99.90;;;;;;4228109;28;20024;-62
2023/10/25 05:01:59;;;;;;;21.77;8.40;;;14.70;99.90;;;;;;4228361;28;20369;-60
2023/10/25 05:04:00;;;;;;;18.42;7.78;;;14.70;99.90;;;;;;4227453;28;20386;-60
2023/10/25 05:06:07;;;;;;;20.08;6.93;;;14.70;99.90;;;;;;4229026;28;20073;-60
2023/10/25 05:08:09;;;;;;;18.77;7.07;;;14.70;99.90;;;;;;4227460;28;20032;-58
2023/10/25 05:10:12;;;;;;;18.98;6.82;;;14.70;99.90;;;;;;4228520;28;20599;-61
2023/10/25 05:12:22;;;;;;;21.48;7.70;;;14.70;99.90;;;;;;4227368;28;20069;-61
2023/10/25 05:14:24;;;;;;;19.40;7.70;;;14.70;99.90;;;;;;4228549;28;20039;-60
2023/10/25 05:16:25;;;;;;;24.67;8.13;;;14.70;99.90;;;;;;4227377;28;20180;-61
2023/10/25 05:18:27;;;;;;;15.85;7.20;;;14.70;99.90;;;;;;4227535;28;20464;-61
2023/10/25 05:20:29;;;;;;;21.38;6.43;;;14.70;99.90;;;;;;4227245;28;20047;-59
2023/10/25 05:22:35;;;;;;;16.15;6.57;;;14.60;99.90;;;;;;4228769;27;20039;-61
2023/10/25 05:24:36;;;;;;;18.90;6.70;;;14.60;99.90;;;;;;4226969;28;20069;-60
2023/10/25 05:26:38;;;;;;;20.30;6.63;;;14.60;99.90;;;;;;4228525;28;20741;-61
2023/10/25 05:28:39;;;;;;;17.10;6.80;;;14.50;99.90;;;;;;4227066;28;20504;-61
2023/10/25 05:30:40;;;;;;;14.90;6.38;;;14.50;99.90;;;;;;4228355;27;20497;-61
2023/10/25 05:32:48;;;;;;;17.15;5.93;;;14.50;99.90;;;;;;4227574;27;20092;-63
2023/10/25 05:34:50;;;;;;;18.98;5.57;;;14.50;99.90;;;;;;4227642;28;20548;-60
2023/10/25 05:36:51;;;;;;;15.82;6.53;;;14.50;99.90;;;;;;4227759;28;20048;-61
2023/10/25 05:38:53;;;;;;;16.45;7.22;;;14.50;99.90;;;;;;4226445;28;20039;-62
2023/10/25 05:40:54;;;;;;;20.20;6.85;;;14.50;99.90;;;;;;4227652;28;20019;-59
2023/10/25 05:42:57;;;;;;;19.52;7.22;;;14.50;99.90;;;;;;4226749;28;20459;-62
2023/10/25 05:44:59;;;;;;;20.98;8.13;;;14.50;99.90;;;;;;4227995;28;20167;-60
2023/10/25 05:47:00;;;;;;;20.60;7.20;;;14.50;99.90;;;;;;4226979;28;20032;-61
2023/10/25 05:49:01;;;;;;;19.30;6.88;;;14.60;99.90;;;;;;4228214;28;20023;-61
2023/10/25 05:51:06;;;;;;;20.70;8.43;;;14.60;99.90;;;;;;4226864;28;20403;-61
2023/10/25 05:53:08;;;;;;;16.45;7.00;;;14.60;99.90;;;;;;4227969;28;20024;-60
2023/10/25 05:55:10;;;;;;;20.15;8.70;;;14.60;99.90;;;;;;4226530;28;20031;-59
2023/10/25 05:57:12;;;;;;;21.23;8.20;;;14.70;99.90;;;;;;4227536;28;20115;-62
2023/10/25 05:59:14;;;;;;;17.95;7.55;;;14.60;99.90;;;;;;4226514;28;20085;-61
2023/10/25 06:01:16;;;;;;;15.85;7.47;;;14.70;99.90;;;;;;4227349;28;20426;-62
2023/10/25 06:03:20;;;;;;;25.08;9.00;;;14.70;99.90;;;;;;4226821;28;20142;-61
2023/10/25 06:05:23;;;;;;;36.28;9.75;;;14.70;99.90;;;;;;4227169;28;20036;-61
2023/10/25 06:07:25;;;;;;;24.73;7.90;;;14.80;99.90;;;;;;4227589;27;20047;-62
2023/10/25 06:09:26;;;;;;;23.83;9.85;;;14.80;99.90;;;;;;4226660;28;20028;-62
2023/10/25 06:11:28;;;;;;;18.45;8.68;;;14.80;99.90;;;;;;4227591;28;20027;-61
2023/10/25 06:13:29;;;;;;;22.35;8.82;;;14.90;99.90;;;;;;4226458;28;20088;-61
2023/10/25 06:15:31;;;;;;;22.25;8.40;;;15.00;99.90;;;;;;4227607;28;20031;-60
2023/10/25 06:17:33;;;;;;;23.40;8.77;;;15.00;99.90;;;;;;4226361;28;20484;-61
2023/10/25 06:19:34;;;;;;;32.05;10.60;;;15.00;99.90;;;;;;4227458;28;20061;-61
2023/10/25 06:21:35;;;;;;;26.85;9.77;;;15.00;99.90;;;;;;4226460;28;20799;-61
2023/10/25 06:23:36;;;;;;;25.88;9.30;;;15.10;99.90;;;;;;4227317;28;20437;-61
2023/10/25 06:25:38;;;;;;;33.15;13.90;;;15.10;99.90;;;;;;4226482;28;20352;-61
2023/10/25 06:27:39;;;;;;;21.40;7.90;;;15.10;99.90;;;;;;4227309;28;20471;-61
2023/10/25 06:29:40;;;;;;;24.63;7.80;;;15.20;99.90;;;;;;4230053;28;20035;-61
2023/10/25 06:31:41;;;;;;;20.67;6.40;;;15.10;99.90;;;;;;4233082;27;20052;-61
2023/10/25 06:33:42;;;;;;;17.90;6.15;;;15.00;99.90;;;;;;4232661;27;20077;-61
2023/10/25 06:35:45;;;;;;;20.08;7.38;;;14.90;99.90;;;;;;4233233;27;20104;-61
2023/10/25 06:37:46;;;;;;;19.95;7.53;;;14.80;99.90;;;;;;4232823;28;20043;-61
2023/10/25 06:39:48;;;;;;;28.75;7.38;;;14.80;99.90;;;;;;4232410;28;20088;-62
2023/10/25 06:41:49;;;;;;;20.92;8.75;;;14.80;99.90;;;;;;4232778;27;20027;-61
2023/10/25 06:43:51;;;;;;;18.95;6.70;;;14.70;99.90;;;;;;4232164;28;20616;-61
2023/10/25 06:45:53;;;;;;;17.35;6.68;;;14.80;99.90;;;;;;4233138;28;20386;-60
2023/10/25 06:47:56;;;;;;;15.40;8.88;;;14.70;99.90;;;;;;4230450;28;20035;-60
2023/10/25 06:49:58;;;;;;;12.85;6.78;;;14.70;99.90;;;;;;4232981;27;20524;-61
2023/10/25 06:51:59;;;;;;;20.45;7.47;;;14.70;99.90;;;;;;4231459;27;20437;-62
2023/10/25 06:54:01;;;;;;;15.43;7.03;;;14.70;99.90;;;;;;4232851;27;20476;-60
2023/10/25 06:56:03;;;;;;;15.55;6.35;;;14.70;99.90;;;;;;4231863;27;20027;-61
2023/10/25 06:58:05;;;;;;;18.80;6.50;;;14.70;99.90;;;;;;4232848;27;20043;-61
2023/10/25 07:00:09;;;;;;;16.77;6.78;;;14.70;99.90;;;;;;4231877;28;20024;-61
2023/10/25 07:02:22;;;;;;;19.98;9.20;;;14.70;99.90;;;;;;4233120;27;20540;-61
2023/10/25 07:04:26;;;;;;;23.70;10.88;;;14.70;99.90;;;;;;4231560;28;20080;-62
2023/10/25 07:06:27;;;;;;;33.15;11.52;;;14.70;99.90;;;;;;4233423;27;20040;-61
2023/10/25 07:08:31;;;;;;;28.40;11.90;;;14.80;99.90;;;;;;4231782;28;20027;-61
2023/10/25 07:10:33;;;;;;;30.48;12.35;;;14.80;99.90;;;;;;4232560;28;20097;-62
2023/10/25 07:12:34;;;;;;;24.40;10.40;;;14.80;99.90;;;;;;4230711;27;20027;-61
2023/10/25 07:14:35;;;;;;;28.85;11.15;;;14.90;99.90;;;;;;4232508;27;20321;-60
2023/10/25 07:16:37;;;;;;;27.52;10.90;;;14.90;99.90;;;;;;4232262;27;20111;-61
2023/10/25 07:18:38;;;;;;;24.98;9.43;;;14.90;99.90;;;;;;4231783;27;20032;-60
2023/10/25 07:20:40;;;;;;;31.13;11.00;;;15.00;99.90;;;;;;4232552;27;20084;-59
2023/10/25 07:22:41;;;;;;;32.45;11.57;;;15.00;99.90;;;;;;4231475;28;20096;-60
2023/10/25 07:24:42;;;;;;;28.38;11.05;;;15.10;99.90;;;;;;4232624;27;20061;-61
2023/10/25 07:26:43;;;;;;;32.72;14.65;;;15.10;99.90;;;;;;4231540;28;20019;-60
2023/10/25 07:28:44;;;;;;;37.95;16.42;;;15.20;99.90;;;;;;4232842;28;20069;-61
2023/10/25 07:30:46;;;;;;;38.00;13.25;;;15.30;99.90;;;;;;4231734;27;20035;-61
2023/10/25 07:32:47;;;;;;;32.85;14.98;;;15.30;99.90;;;;;;4232981;27;20084;-61
2023/10/25 07:34:48;;;;;;;34.90;13.18;;;15.40;99.90;;;;;;4231886;27;20035;-60
2023/10/25 07:36:49;;;;;;;30.33;12.48;;;15.40;99.90;;;;;;4233280;27;20119;-61
2023/10/25 07:38:52;;;;;;;33.85;14.10;;;15.50;99.90;;;;;;4231806;28;20100;-61
2023/10/25 07:40:53;;;;;;;34.40;13.52;;;15.60;99.90;;;;;;4230085;28;20507;-61
2023/10/25 07:42:54;;;;;;;35.67;12.55;;;15.80;99.90;;;;;;4229142;28;20035;-60
2023/10/25 07:44:57;;;;;;;38.65;13.23;;;15.90;99.90;;;;;;4229318;28;20073;-61
2023/10/25 07:46:58;;;;;;;30.05;13.93;;;16.30;99.90;;;;;;4229331;28;20036;-61
2023/10/25 07:48:59;;;;;;;37.67;13.43;;;16.70;99.90;;;;;;4229392;27;20443;-60
2023/10/25 07:51:04;;;;;;;23.00;9.77;;;16.90;99.90;;;;;;4229812;28;20517;-62
2023/10/25 07:53:05;;;;;;;16.20;7.03;;;17.10;99.90;;;;;;4228706;28;20057;-61
2023/10/25 07:55:06;;;;;;;24.17;7.85;;;17.20;99.90;;;;;;4229894;28;20035;-62
2023/10/25 07:57:08;;;;;;;20.35;6.43;;;17.40;99.90;;;;;;4228746;28;20089;-59
2023/10/25 07:59:09;;;;;;;21.38;5.88;;;17.70;99.90;;;;;;4228427;28;20054;-59
2023/10/25 08:01:11;;;;;;;13.50;4.40;;;18.20;99.90;;;;;;4228877;27;20365;-61
2023/10/25 08:03:15;;;;;;;16.92;4.63;;;18.70;99.90;;;;;;4229977;28;20092;-61
2023/10/25 08:05:16;;;;;;;16.70;4.68;;;19.00;99.90;;;;;;4228631;28;20499;-59
2023/10/25 08:07:17;;;;;;;15.85;3.38;;;19.40;99.90;;;;;;4230490;27;20081;-60
2023/10/25 08:09:19;;;;;;;19.10;3.83;;;19.70;99.90;;;;;;4228597;28;20081;-61
2023/10/25 08:11:20;;;;;;;14.10;4.30;;;20.00;99.90;;;;;;4230149;28;20088;-61
2023/10/25 08:13:21;;;;;;;8.98;3.20;;;20.50;99.90;;;;;;4228691;28;20036;-60
2023/10/25 08:15:22;;;;;;;13.77;3.13;;;20.60;99.90;;;;;;4229158;28;20027;-63
2023/10/25 08:17:23;;;;;;;24.48;3.10;;;20.70;99.90;;;;;;4228634;28;20084;-62
2023/10/25 08:19:24;;;;;;;11.43;2.90;;;20.80;99.90;;;;;;4228643;28;20035;-60
2023/10/25 08:21:25;;;;;;;10.15;3.47;;;21.00;99.90;;;;;;4229071;27;20352;-61
2023/10/25 08:23:27;;;;;;;11.30;2.80;;;21.10;99.90;;;;;;4228021;28;20031;-62
2023/10/25 08:25:29;;;;;;;17.52;3.38;;;21.20;99.90;;;;;;4229122;28;20047;-60
2023/10/25 08:27:30;;;;;;;11.80;2.92;;;21.20;99.90;;;;;;4228500;28;20031;-62
2023/10/25 08:29:31;;;;;;;20.40;4.13;;;21.20;99.90;;;;;;4229851;28;20031;-61
2023/10/25 08:31:33;;;;;;;15.30;3.60;;;21.30;99.90;;;;;;4228511;28;20403;-60
2023/10/25 08:33:34;;;;;;;9.07;2.20;;;21.30;99.90;;;;;;4229298;28;20529;-61
2023/10/25 08:35:35;;;;;;;10.98;3.10;;;21.30;99.90;;;;;;4228279;27;20043;-62
2023/10/25 08:37:36;;;;;;;11.50;1.98;;;21.30;99.90;;;;;;4229486;28;20444;-62
2023/10/25 08:39:37;;;;;;;12.48;2.28;;;21.40;99.90;;;;;;4227967;27;20043;-61
2023/10/25 08:41:39;;;;;;;8.65;2.55;;;21.50;99.90;;;;;;4227833;28;20069;-62
2023/10/25 08:43:40;;;;;;;12.90;2.60;;;21.50;99.90;;;;;;4227750;28;20042;-61
2023/10/25 08:45:44;;;;;;;11.00;2.88;;;21.50;99.90;;;;;;4228292;28;20043;-61
2023/10/25 08:47:45;;;;;;;9.95;2.30;;;21.40;99.90;;;;;;4228625;27;20093;-61
2023/10/25 08:49:46;;;;;;;13.73;3.30;;;21.30;99.90;;;;;;4228540;28;20085;-61
2023/10/25 08:51:49;;;;;;;9.13;1.90;;;21.20;99.90;;;;;;4228271;28;20540;-60
2023/10/25 08:53:52;;;;;;;8.55;1.50;;;21.20;99.90;;;;;;4227996;28;20433;-63
2023/10/25 08:55:55;;;;;;;10.70;1.80;;;21.30;99.90;;;;;;4228742;28;20019;-62
2023/10/25 08:57:56;;;;;;;4.05;2.05;;;21.30;99.90;;;;;;4227459;28;20040;-60
2023/10/25 08:59:57;;;;;;;4.85;1.75;;;21.30;99.90;;;;;;4228668;28;20035;-62
2023/10/25 09:01:58;;;;;;;8.38;1.20;;;21.30;99.90;;;;;;4227670;28;20108;-62
2023/10/25 09:04:06;;;;;;;6.00;1.15;;;21.20;99.90;;;;;;4228739;28;20032;-62
2023/10/25 09:06:09;;;;;;;8.35;1.80;;;21.20;99.90;;;;;;4227620;28;20048;-61
2023/10/25 09:08:16;;;;;;;4.28;0.70;;;21.20;99.90;;;;;;4229058;28;20028;-60
2023/10/25 09:10:19;;;;;;;5.80;1.40;;;21.20;99.90;;;;;;4227333;28;20028;-63
2023/10/25 09:12:20;;;;;;;6.90;0.90;;;21.10;99.90;;;;;;4228830;28;20077;-62
2023/10/25 09:14:22;;;;;;;7.38;1.48;;;21.00;99.90;;;;;;4227485;28;20468;-60
2023/10/25 09:16:26;;;;;;;6.15;1.75;;;21.00;99.90;;;;;;4228896;27;20036;-61
2023/10/25 09:18:28;;;;;;;7.00;1.92;;;21.00;99.90;;;;;;4227585;28;20120;-62
2023/10/25 09:20:29;;;;;;;8.48;2.85;;;20.90;99.90;;;;;;4228416;27;20043;-63
2023/10/25 09:22:30;;;;;;;5.93;1.20;;;20.90;99.90;;;;;;4227097;28;20039;-61
2023/10/25 09:24:51;;;;;;;3.15;0.65;;;20.90;99.90;;;;;;4227473;28;20035;-63
2023/10/25 09:26:55;;;;;;;1.70;0.52;;;21.10;99.90;;;;;;4226948;28;20386;-62
2023/10/25 09:28:56;;;;;;;1.83;0.90;;;21.30;99.90;;;;;;4228143;27;20043;-61
2023/10/25 09:30:59;;;;;;;3.20;0.57;;;21.50;99.90;;;;;;4227400;28;20069;-61
2023/10/25 09:33:00;;;;;;;6.60;0.70;;;21.60;99.90;;;;;;4226048;28;20061;-62
2023/10/25 09:35:03;;;;;;;2.40;0.40;;;21.70;99.90;;;;;;4226569;28;20039;-60
2023/10/25 09:37:04;;;;;;;2.50;0.85;;;21.70;99.90;;;;;;4227289;28;20092;-63
2023/10/25 09:39:06;;;;;;;4.10;0.22;;;21.80;99.90;;;;;;4228208;28;20068;-61
2023/10/25 09:41:16;;;;;;;2.75;0.45;;;21.90;99.90;;;;;;4226616;28;20031;-61
2023/10/25 09:43:21;;;;;;;2.30;0.20;;;22.00;99.90;;;;;;4227949;28;20020;-60
2023/10/25 09:45:31;;;;;;;3.70;0.22;;;21.90;99.90;;;;;;4226935;28;20032;-60
2023/10/25 09:47:38;;;;;;;1.27;0.47;;;21.70;99.90;;;;;;4228110;28;20065;-61
2023/10/25 09:49:43;;;;;;;2.10;0.38;;;21.60;99.90;;;;;;4226783;28;20039;-62
2023/10/25 09:52:07;;;;;;;1.55;0.20;;;21.40;99.90;;;;;;4228337;28;20647;-62
2023/10/25 09:54:12;;;;;;;1.13;0.28;;;21.30;99.90;;;;;;4226845;28;20476;-61
2023/10/25 09:56:14;;;;;;;4.38;0.95;;;21.10;99.90;;;;;;4227979;28;20027;-59
2023/10/25 09:58:17;;;;;;;2.25;0.50;;;21.10;99.90;;;;;;4226631;28;20468;-60
2023/10/25 10:00:18;;;;;;;0.80;0.38;;;21.00;99.90;;;;;;4227659;28;20104;-60
2023/10/25 10:02:49;;;;;;;2.47;0.30;;;21.00;99.90;;;;;;4226317;28;20386;-60
2023/10/25 10:04:57;;;;;;;1.15;0.22;;;20.90;99.90;;;;;;4227003;28;20044;-60
2023/10/25 10:07:08;;;;;;;2.05;0.22;;;20.90;99.90;;;;;;4226398;28;20023;-60
2023/10/25 10:09:15;;;;;;;2.63;0.38;;;20.90;99.90;;;;;;4227718;28;20152;-62
2023/10/25 10:11:21;;;;;;;3.03;0.75;;;20.80;99.90;;;;;;4226447;28;20041;-61
2023/10/25 10:13:23;;;;;;;5.38;0.50;;;20.80;99.90;;;;;;4227404;28;20041;-61
2023/10/25 10:15:57;;;;;;;1.13;0.43;;;20.80;99.90;;;;;;4226324;28;20065;-61
2023/10/25 10:18:02;;;;;;;1.02;0.40;;;20.80;99.90;;;;;;4227216;28;20031;-61
2023/10/25 10:20:05;;;;;;;1.52;0.35;;;20.80;99.90;;;;;;4226370;28;20031;-61
2023/10/25 10:22:13;;;;;;;2.00;0.70;;;20.80;99.90;;;;;;4227481;28;20048;-61
2023/10/25 10:24:42;;;;;;;2.25;0.63;;;20.80;99.90;;;;;;4226430;28;20028;-61
2023/10/25 10:26:43;;;;;;;5.20;2.50;;;20.80;99.90;;;;;;4227360;28;20112;-61
2023/10/25 10:28:48;;;;;;;4.30;1.63;;;20.70;99.90;;;;;;4226386;28;20101;-61
2023/10/25 10:30:52;;;;;;;7.45;2.63;;;20.70;99.90;;;;;;4227493;28;20084;-62